Latest  Newer  Older  Last 2 hours animation  Current image  Latest image 
Rain/snow radar  Infrared sat images 
Real-time lightning map

All time is UTC (add 2 hours to UTC in wintertime, 3 hours to UTC in DST for Latvia local time)

2021/04/21 19:20 EVRA 211920Z VRB02KT CAVOK 05/M00 Q1003 NOSIG
2021/04/21 19:20 EVLA 211920Z AUTO 23015KT 9999 SCT090/// 07/03 Q1004
2021/04/21 19:20 EVVA 211920Z AUTO 19010KT CAVOK 06/05 Q1002
2021/04/21 19:20 EYKA 211920Z 27008KT CAVOK 09/M01 Q1007
2021/04/21 19:20 EYPA 211920Z AUTO 24006KT 180V290 9999 BKN083/// 06/04 Q1006
2021/04/21 19:20 EYSA 211920Z 25008KT CAVOK 09/01 Q1006 BLU NOSIG
2021/04/21 19:20 EYVI 211920Z 26005KT CAVOK 10/M03 Q1007 NOSIG
2021/04/21 15:20 EEKA 211520Z 34005KT CAVOK 08/03 Q1002
2021/04/21 19:20 EEKE 211920Z AUTO 22006KT 190V250 9999NDV NSC 07/02 Q1002

2021/04/21 19:20 EETN 211920Z 27006KT CAVOK 06/02 Q1001 NOSIG
2021/04/21 19:20 EETU 211920Z AUTO 18003KT 120V210 9999 NCD 08/04 Q1002
   RIGA AIRPORT     EVRA               56 55N  023 58E   10   X     T          6 LV
   LIEPAJA INTL     EVLA        26406  56 31N  021 06E    4   X                8 LV
   VENTPILS         EVVA               57 21N  021 33E    6   X                8 LV
   KAUNAS           EYKA               54 54N  023 55E   77   X     T          6 LT
   PALANGA INTL     EYPA               55 55N  021 03E   10   X                6 LT
   SIAULIAI INTL    EYSA               55 54N  023 24E  135   X     T          6 LT
   VILNIUS INTL     EYVI        26730  54 38N  025 17E  197   X     T          6 LT
   KARDLA           EEKA        26116  58 59N  022 50E    4   X                8 EE
   KURESSAARE       EEKE               58 14N  022 31E    4   X                8 EE
   PARNU            EEPU               58 25N  024 28E   14   X                8 EE
   TALLINN          EETN        26038  59 24N  024 49E   40   X     T          8 EE
   TARTU            EETU               58 19N  026 41E   67   X                8 EE

cloud coverage image from sat24.com and METAR data from weather.noaa.gov